EDJA

Memmingen Allgau Airport

Memmingen, Germany
METAR EDJA 211250Z 06009KT 5000 BR OVC006 M03/M04 Q1015
Observed Flight Rules
Feb-21 @ 12:50 UTC (22 minutes ago) Instrument Flight Rules
Wind Visibility Clouds Conditions
60° at 9 knots 5,005 meters
  • Overcast at 600' AGL
  • Mist
Temperatures Readings
Current -3°C / 27°F
Dewpoint -4°C / 25°F
Humidity 93%
Altimeter 29.97" Hg
Pressure 1015 hPa
Elevation 633
METAR EDJA 211250Z 06009KT 5000 BR OVC006 M03/M04 Q1015
Observed Flight Rules
Feb-21 @ 12:50 UTC
(22 minutes ago)
IFR
Wind Visibility
60° at 9 knots 5,005 meters
Clouds
  • Overcast at 600' AGL
Conditions
  • Mist
Temperature Dewpoint
-3°C / 27°F -4°C / 25°F
Humidity Altimeter Pressure
93% 29.97" Hg 1015 hPa